createdAt,value
2022-08-07T00:01:44.686Z,2.63
2022-08-07T00:04:03.502Z,3.10
2022-08-07T00:06:33.654Z,3.97
2022-08-07T00:09:17.151Z,3.13
2022-08-07T00:11:55.303Z,2.80
2022-08-07T00:14:31.531Z,3.00
2022-08-07T00:17:03.083Z,2.77
2022-08-07T00:19:59.954Z,2.67
2022-08-07T00:22:34.474Z,2.67
2022-08-07T00:25:11.114Z,3.23
2022-08-07T00:27:53.534Z,2.80
2022-08-07T00:30:28.044Z,3.53
2022-08-07T00:32:59.987Z,3.97
2022-08-07T00:35:29.966Z,3.83
2022-08-07T00:37:58.313Z,3.40
2022-08-07T00:40:39.999Z,4.13
2022-08-07T00:44:01.747Z,3.60
2022-08-07T00:45:59.088Z,2.80
2022-08-07T00:48:32.052Z,2.93
2022-08-07T00:51:01.011Z,2.63
2022-08-07T00:53:38.455Z,3.07
2022-08-07T00:56:14.015Z,2.77
2022-08-07T00:58:47.114Z,3.00
2022-08-07T01:04:24.565Z,2.60
2022-08-07T01:07:04.779Z,2.90
2022-08-07T01:10:03.884Z,3.17
2022-08-07T01:15:35.781Z,3.03
2022-08-07T01:18:10.572Z,3.07
2022-08-07T01:26:29.722Z,2.93
2022-08-07T01:29:22.133Z,3.00
2022-08-07T01:41:06.278Z,2.90
2022-08-07T01:43:34.683Z,2.90
2022-08-07T01:46:06.031Z,2.83
2022-08-07T01:48:35.651Z,2.93
2022-08-07T01:52:02.623Z,3.17
2022-08-07T01:54:12.660Z,3.13
2022-08-07T01:56:56.407Z,2.90
2022-08-07T01:59:33.904Z,3.73
2022-08-07T02:02:10.338Z,3.03
2022-08-07T02:04:56.222Z,3.00
2022-08-07T02:07:44.667Z,3.10
2022-08-07T02:10:19.300Z,2.60
2022-08-07T02:12:50.005Z,3.17
2022-08-07T02:15:23.675Z,2.93
2022-08-07T02:17:54.880Z,3.40
2022-08-07T02:20:24.688Z,2.80
2022-08-07T02:22:57.547Z,3.10
2022-08-07T02:26:10.205Z,3.03
2022-08-07T02:28:24.741Z,3.10
2022-08-07T02:30:53.392Z,3.10
2022-08-07T02:33:21.444Z,3.80
2022-08-07T02:36:28.519Z,2.83
2022-08-07T02:38:38.648Z,3.10
2022-08-07T02:41:06.323Z,3.73
2022-08-07T02:43:39.497Z,3.30
2022-08-07T02:46:07.432Z,3.47
2022-08-07T02:48:34.684Z,4.07
2022-08-07T02:51:07.766Z,3.17
2022-08-07T02:53:55.622Z,3.90
2022-08-07T02:56:23.762Z,4.53
2022-08-07T02:58:55.610Z,3.67
2022-08-07T03:01:35.751Z,4.53
2022-08-07T03:04:07.558Z,3.60
2022-08-07T03:06:39.840Z,3.80
2022-08-07T03:09:11.338Z,4.50
2022-08-07T03:11:52.555Z,3.80
2022-08-07T03:14:28.724Z,3.90
2022-08-07T03:16:56.977Z,4.10
2022-08-07T03:19:24.887Z,4.47
2022-08-07T03:21:56.797Z,4.73
2022-08-07T03:24:27.513Z,4.37
2022-08-07T03:26:58.821Z,4.40
2022-08-07T03:29:28.859Z,4.70
2022-08-07T03:31:56.599Z,4.03
2022-08-07T03:34:27.184Z,4.67
2022-08-07T03:36:57.986Z,4.97
2022-08-07T03:39:59.766Z,4.53
2022-08-07T03:42:17.268Z,4.60
2022-08-07T03:44:47.177Z,4.67
2022-08-07T03:47:20.689Z,5.10
2022-08-07T03:49:52.296Z,4.47
2022-08-07T03:52:26.209Z,4.07
2022-08-07T03:55:06.610Z,4.73
2022-08-07T03:58:08.839Z,4.33
2022-08-07T04:00:30.229Z,4.57
2022-08-07T04:02:59.627Z,4.17
2022-08-07T04:05:41.088Z,4.40
2022-08-07T04:08:11.615Z,4.33
2022-08-07T04:10:39.782Z,4.27
2022-08-07T04:13:15.477Z,4.60
2022-08-07T04:15:48.938Z,4.37
2022-08-07T04:18:57.335Z,4.73
2022-08-07T04:21:07.215Z,4.07
2022-08-07T04:23:44.004Z,4.67
2022-08-07T04:26:22.220Z,4.40
2022-08-07T04:28:51.879Z,4.70
2022-08-07T04:31:20.202Z,4.33
2022-08-07T04:34:16.579Z,4.17
2022-08-07T04:36:45.375Z,4.20
2022-08-07T04:39:16.100Z,4.30
2022-08-07T04:41:50.183Z,4.40
2022-08-07T04:44:18.951Z,5.00
2022-08-07T04:47:04.186Z,4.93
2022-08-07T04:50:04.263Z,4.73
2022-08-07T04:52:32.020Z,4.70
2022-08-07T04:58:07.524Z,4.60
2022-08-07T04:58:33.619Z,4.93
2022-08-07T05:01:18.008Z,4.80
2022-08-07T05:04:07.856Z,4.87
2022-08-07T05:06:53.238Z,5.50
2022-08-07T05:09:45.888Z,5.37
2022-08-07T05:12:26.794Z,5.00
2022-08-07T05:15:03.215Z,5.47
2022-08-07T05:17:52.529Z,4.93
2022-08-07T05:20:24.723Z,4.80
2022-08-07T05:22:54.048Z,4.53
2022-08-07T05:25:25.558Z,4.50
2022-08-07T05:28:20.571Z,5.50
2022-08-07T05:30:52.279Z,4.47
2022-08-07T05:33:20.779Z,5.20
2022-08-07T05:35:49.701Z,5.40
2022-08-07T05:39:01.237Z,5.50
2022-08-07T05:41:12.078Z,6.10
2022-08-07T05:43:49.531Z,5.73
2022-08-07T05:46:29.639Z,5.53
2022-08-07T05:48:58.258Z,5.83
2022-08-07T05:51:31.799Z,5.60
2022-08-07T05:54:12.867Z,6.97
2022-08-07T05:56:51.462Z,6.03
2022-08-07T05:59:19.477Z,5.83
2022-08-07T06:01:49.970Z,5.80
2022-08-07T06:04:18.229Z,5.33
2022-08-07T06:06:47.833Z,5.87
2022-08-07T06:10:04.605Z,5.87
2022-08-07T06:12:12.398Z,4.87
2022-08-07T06:14:43.211Z,5.20
2022-08-07T06:17:17.902Z,4.90
2022-08-07T06:19:51.844Z,4.53
2022-08-07T06:22:38.691Z,5.10
2022-08-07T06:25:10.218Z,5.60
2022-08-07T06:27:43.926Z,4.97
2022-08-07T06:30:32.161Z,4.60
2022-08-07T06:33:04.910Z,4.57
2022-08-07T06:35:45.679Z,4.60
2022-08-07T06:38:20.417Z,4.83
2022-08-07T06:40:50.579Z,4.83
2022-08-07T06:43:20.913Z,4.20
2022-08-07T06:45:49.018Z,3.90
2022-08-07T06:48:16.276Z,4.37
2022-08-07T06:50:53.084Z,4.17
2022-08-07T06:55:28.351Z,3.93
2022-08-07T06:56:15.499Z,4.77
2022-08-07T07:00:15.000Z,3.63
2022-08-07T07:01:41.812Z,3.47
2022-08-07T07:04:32.825Z,2.90
2022-08-07T07:07:01.660Z,3.00
2022-08-07T07:09:31.422Z,2.77
2022-08-07T07:12:15.664Z,3.40
2022-08-07T07:14:46.963Z,3.13
2022-08-07T07:17:22.099Z,3.40
2022-08-07T07:19:59.143Z,3.53
2022-08-07T07:22:36.724Z,2.90
2022-08-07T07:26:32.326Z,3.13
2022-08-07T07:28:29.814Z,2.83
2022-08-07T07:31:05.655Z,2.77
2022-08-07T07:33:35.995Z,2.57
2022-08-07T07:36:13.413Z,2.63
2022-08-07T07:38:46.071Z,2.13
2022-08-07T07:41:21.390Z,2.70
2022-08-07T07:44:17.042Z,2.10
2022-08-07T07:46:55.835Z,2.23
2022-08-07T07:50:29.563Z,2.10
2022-08-07T07:52:16.154Z,2.23
2022-08-07T07:54:50.794Z,2.10
2022-08-07T07:57:21.527Z,1.80
2022-08-07T08:00:09.472Z,2.08
2022-08-07T08:02:38.800Z,2.00
2022-08-07T08:05:30.296Z,2.20
2022-08-07T08:08:32.270Z,2.70
2022-08-07T08:10:59.001Z,2.08
2022-08-07T08:13:36.607Z,2.00
2022-08-07T08:16:17.188Z,2.10
2022-08-07T08:18:50.271Z,1.95
2022-08-07T08:21:55.937Z,1.80
2022-08-07T08:24:45.314Z,2.03
2022-08-07T08:27:16.759Z,1.75
2022-08-07T08:29:55.520Z,1.73
2022-08-07T08:32:25.158Z,1.95
2022-08-07T08:34:54.468Z,2.05
2022-08-07T08:38:00.341Z,1.73
2022-08-07T08:40:12.385Z,1.65
2022-08-07T08:43:01.920Z,1.50
2022-08-07T08:45:59.428Z,1.50
2022-08-07T08:48:36.186Z,2.00
2022-08-07T08:51:25.959Z,1.33
2022-08-07T08:54:16.720Z,1.40
2022-08-07T08:56:48.504Z,1.10
2022-08-07T08:59:42.323Z,1.30
2022-08-07T09:02:36.509Z,1.15
2022-08-07T09:05:37.009Z,1.42
2022-08-07T09:08:07.834Z,1.40
2022-08-07T09:10:44.359Z,1.40
2022-08-07T09:13:15.068Z,1.27
2022-08-07T09:16:20.425Z,1.67
2022-08-07T09:18:53.197Z,1.67
2022-08-07T09:21:33.838Z,1.13
2022-08-07T09:24:34.199Z,1.38
2022-08-07T09:27:13.523Z,1.80
2022-08-07T09:30:05.933Z,1.00
2022-08-07T09:32:50.451Z,1.23
2022-08-07T09:36:04.387Z,1.67
2022-08-07T09:38:31.562Z,1.92
2022-08-07T09:41:03.462Z,1.23
2022-08-07T09:44:06.785Z,1.35
2022-08-07T09:47:50.579Z,1.52
2022-08-07T09:50:00.616Z,1.20
2022-08-07T09:52:38.332Z,1.70
2022-08-07T09:55:28.757Z,1.38
2022-08-07T09:58:09.597Z,1.23
2022-08-07T10:00:59.383Z,1.20
2022-08-07T10:04:04.975Z,1.20
2022-08-07T10:06:25.729Z,1.48
2022-08-07T10:09:08.686Z,1.30
2022-08-07T10:12:01.259Z,1.45
2022-08-07T10:14:33.043Z,1.10
2022-08-07T10:17:18.757Z,1.20
2022-08-07T10:20:04.924Z,1.30
2022-08-07T10:22:45.338Z,1.30
2022-08-07T10:25:42.467Z,1.15
2022-08-07T10:28:29.626Z,1.05
2022-08-07T10:31:15.357Z,1.10
2022-08-07T10:34:06.083Z,1.13
2022-08-07T10:36:53.917Z,1.13
2022-08-07T10:39:41.617Z,1.58
2022-08-07T10:42:31.424Z,1.55
2022-08-07T10:45:12.665Z,1.35
2022-08-07T10:47:52.813Z,1.35
2022-08-07T10:50:26.563Z,1.30
2022-08-07T10:53:21.243Z,1.20
2022-08-07T10:55:50.513Z,1.23
2022-08-07T10:58:31.986Z,0.90
2022-08-07T11:01:18.999Z,1.40
2022-08-07T11:04:16.758Z,1.50
2022-08-07T11:06:46.837Z,1.27
2022-08-07T11:10:08.553Z,1.23
2022-08-07T11:12:32.364Z,1.25
2022-08-07T11:15:14.804Z,1.55
2022-08-07T11:17:49.136Z,1.35
2022-08-07T11:20:37.934Z,1.20
2022-08-07T11:23:30.734Z,1.48
2022-08-07T11:26:48.318Z,1.50
2022-08-07T11:29:42.033Z,1.23
2022-08-07T11:32:35.822Z,1.52
2022-08-07T11:35:12.055Z,1.23
2022-08-07T11:38:10.401Z,1.17
2022-08-07T11:40:58.568Z,1.70
2022-08-07T11:43:41.664Z,1.48
2022-08-07T11:46:33.839Z,1.00
2022-08-07T11:49:50.390Z,1.42
2022-08-07T11:52:19.473Z,1.02
2022-08-07T11:55:18.815Z,1.35
2022-08-07T11:58:16.176Z,1.40
2022-08-07T12:01:00.219Z,1.60
2022-08-07T12:03:41.983Z,1.33
2022-08-07T12:06:37.674Z,1.33
2022-08-07T12:09:29.535Z,1.20
2022-08-07T12:12:13.198Z,1.05
2022-08-07T12:14:55.263Z,1.40
2022-08-07T12:17:25.609Z,1.25
2022-08-07T12:20:05.490Z,1.35
2022-08-07T12:22:56.071Z,1.75
2022-08-07T12:26:23.284Z,1.08
2022-08-07T12:29:11.289Z,0.95
2022-08-07T12:32:01.441Z,1.10
2022-08-07T12:34:34.607Z,1.30
2022-08-07T12:37:08.452Z,1.15
2022-08-07T12:39:51.262Z,1.40
2022-08-07T12:42:27.880Z,2.53
2022-08-07T12:45:05.577Z,1.00
2022-08-07T12:47:54.637Z,1.40
2022-08-07T12:50:40.251Z,2.58
2022-08-07T12:53:27.786Z,1.15
2022-08-07T12:56:33.781Z,1.20
2022-08-07T12:59:08.299Z,1.20
2022-08-07T13:06:01.835Z,1.25
2022-08-07T13:08:14.250Z,1.20
2022-08-07T13:10:52.957Z,1.05
2022-08-07T13:13:47.558Z,1.33
2022-08-07T13:16:18.793Z,1.10
2022-08-07T13:19:02.116Z,1.20
2022-08-07T13:21:50.570Z,1.30
2022-08-07T13:24:43.900Z,0.88
2022-08-07T13:27:20.640Z,1.25
2022-08-07T13:29:57.052Z,1.20
2022-08-07T13:32:37.567Z,1.40
2022-08-07T13:35:10.172Z,1.15
2022-08-07T13:37:59.024Z,1.17
2022-08-07T13:40:35.914Z,1.00
2022-08-07T13:43:12.345Z,1.00
2022-08-07T13:46:10.949Z,1.35
2022-08-07T13:48:34.739Z,1.70
2022-08-07T13:51:27.656Z,1.20
2022-08-07T13:54:00.716Z,1.20
2022-08-07T13:56:36.000Z,1.20
2022-08-07T13:59:10.409Z,0.88
2022-08-07T14:01:55.617Z,1.17
2022-08-07T14:04:35.571Z,1.20
2022-08-07T14:07:05.969Z,1.13
2022-08-07T14:10:02.066Z,1.02
2022-08-07T14:12:28.202Z,1.15
2022-08-07T14:15:01.203Z,1.40
2022-08-07T14:18:13.169Z,1.20
2022-08-07T14:20:40.866Z,1.00
2022-08-07T14:23:31.566Z,0.85
2022-08-07T14:26:08.455Z,1.20
2022-08-07T14:28:57.494Z,1.33
2022-08-07T14:31:25.592Z,1.10
2022-08-07T14:34:20.166Z,1.38
2022-08-07T14:36:56.318Z,1.20
2022-08-07T14:40:16.469Z,1.23
2022-08-07T14:42:20.930Z,1.13
2022-08-07T14:44:53.824Z,1.58
2022-08-07T14:47:27.503Z,1.42
2022-08-07T14:49:59.068Z,1.30
2022-08-07T14:52:29.000Z,1.60
2022-08-07T14:54:58.631Z,1.17
2022-08-07T15:03:19.268Z,1.65
2022-08-07T15:06:03.308Z,1.48
2022-08-07T15:08:34.506Z,1.35
2022-08-07T15:11:06.909Z,1.85
2022-08-07T15:13:37.113Z,1.80
2022-08-07T15:16:11.094Z,1.67
2022-08-07T15:18:41.907Z,2.00
2022-08-07T15:27:09.140Z,1.30
2022-08-07T15:32:39.854Z,1.50
2022-08-07T15:35:17.525Z,1.60
2022-08-07T15:38:04.355Z,1.33
2022-08-07T15:40:36.847Z,1.30
2022-08-07T15:43:06.512Z,1.70
2022-08-07T15:48:31.825Z,1.60
2022-08-07T15:53:56.742Z,1.25
2022-08-07T15:56:35.103Z,1.60
2022-08-07T15:59:16.434Z,1.60
2022-08-07T16:02:01.758Z,1.42
2022-08-07T16:04:32.100Z,1.52
2022-08-07T16:07:00.851Z,1.25
2022-08-07T16:09:52.662Z,1.60
2022-08-07T16:12:39.105Z,1.40
2022-08-07T16:15:55.003Z,1.77
2022-08-07T16:18:50.380Z,1.35
2022-08-07T16:22:01.771Z,1.42
2022-08-07T16:24:34.651Z,1.50
2022-08-07T16:27:40.389Z,1.63
2022-08-07T16:30:29.763Z,1.55
2022-08-07T16:33:00.188Z,1.73
2022-08-07T16:35:51.884Z,1.42
2022-08-07T16:39:00.437Z,1.33
2022-08-07T16:41:41.393Z,1.40
2022-08-07T16:45:06.567Z,1.58
2022-08-07T16:47:52.911Z,1.52
2022-08-07T16:50:41.647Z,1.40
2022-08-07T16:54:01.644Z,1.85
2022-08-07T16:56:21.048Z,1.60
2022-08-07T16:59:10.816Z,1.83
2022-08-07T17:01:42.384Z,1.80
2022-08-07T17:04:24.799Z,1.48
2022-08-07T17:07:02.803Z,1.83
2022-08-07T17:10:06.884Z,1.55
2022-08-07T17:12:43.854Z,1.83
2022-08-07T17:15:15.651Z,1.60
2022-08-07T17:17:49.311Z,1.73
2022-08-07T17:20:33.029Z,1.80
2022-08-07T17:23:03.080Z,1.80
2022-08-07T17:25:52.046Z,1.88
2022-08-07T17:28:34.448Z,1.63
2022-08-07T17:31:16.033Z,1.70
2022-08-07T17:34:32.609Z,1.80
2022-08-07T17:36:57.633Z,2.08
2022-08-07T17:39:58.187Z,1.92
2022-08-07T17:42:31.977Z,1.80
2022-08-07T17:44:59.725Z,1.80
2022-08-07T17:47:45.211Z,2.10
2022-08-07T17:50:23.278Z,1.77
2022-08-07T17:52:59.055Z,1.95
2022-08-07T17:56:00.425Z,1.98
2022-08-07T18:01:17.959Z,1.70
2022-08-07T18:04:06.739Z,2.55
2022-08-07T18:07:19.155Z,2.03
2022-08-07T18:09:48.269Z,1.92
2022-08-07T18:12:34.123Z,2.13
2022-08-07T18:15:12.133Z,2.80
2022-08-07T18:18:46.955Z,3.10
2022-08-07T18:21:25.338Z,2.10
2022-08-07T18:24:09.235Z,1.92
2022-08-07T18:26:40.482Z,2.10
2022-08-07T18:30:04.555Z,2.28
2022-08-07T18:32:28.502Z,2.30
2022-08-07T18:35:11.757Z,2.53
2022-08-07T18:38:57.158Z,1.93
2022-08-07T18:41:20.706Z,2.17
2022-08-07T18:44:25.706Z,2.10
2022-08-07T18:47:09.781Z,2.20
2022-08-07T18:50:33.150Z,3.13
2022-08-07T18:53:01.472Z,3.10
2022-08-07T18:55:57.586Z,2.75
2022-08-07T18:59:08.311Z,2.83
2022-08-07T19:02:34.367Z,2.77
2022-08-07T19:05:10.171Z,2.40
2022-08-07T19:07:51.888Z,2.07
2022-08-07T19:10:31.488Z,2.30
2022-08-07T19:13:11.661Z,2.90
2022-08-07T19:16:05.804Z,2.20
2022-08-07T19:18:35.444Z,2.50
2022-08-07T19:21:43.999Z,2.30
2022-08-07T19:24:31.043Z,2.07
2022-08-07T19:28:29.288Z,2.50
2022-08-07T19:31:03.259Z,2.30
2022-08-07T19:32:59.375Z,2.60
2022-08-07T19:35:33.486Z,2.90
2022-08-07T19:38:02.855Z,3.00
2022-08-07T19:41:01.089Z,2.90
2022-08-07T19:43:49.492Z,2.67
2022-08-07T19:46:28.980Z,2.40
2022-08-07T19:49:58.453Z,2.73
2022-08-07T19:52:18.145Z,2.27
2022-08-07T19:54:55.982Z,2.30
2022-08-07T19:58:01.692Z,1.97
2022-08-07T20:00:31.019Z,2.23
2022-08-07T20:03:05.662Z,2.60
2022-08-07T20:06:05.511Z,4.40
2022-08-07T20:08:56.518Z,4.00
2022-08-07T20:12:22.444Z,2.80
2022-08-07T20:14:53.599Z,2.57
2022-08-07T20:17:29.216Z,2.70
2022-08-07T20:20:03.345Z,2.87
2022-08-07T20:22:56.759Z,2.63
2022-08-07T20:25:26.579Z,3.40
2022-08-07T20:28:07.680Z,2.60
2022-08-07T20:30:38.386Z,3.27
2022-08-07T20:33:08.924Z,2.70
2022-08-07T20:36:03.015Z,2.33
2022-08-07T20:38:34.289Z,2.53
2022-08-07T20:41:05.280Z,2.70
2022-08-07T20:43:38.522Z,3.23
2022-08-07T20:46:26.477Z,2.80
2022-08-07T20:49:59.873Z,2.70
2022-08-07T20:51:51.059Z,3.00
2022-08-07T20:54:30.318Z,2.00
2022-08-07T20:57:08.379Z,2.40
2022-08-07T21:00:07.316Z,2.40
2022-08-07T21:02:54.108Z,2.70
2022-08-07T21:05:52.723Z,2.40
2022-08-07T21:08:50.341Z,2.50
2022-08-07T21:14:34.794Z,2.37
2022-08-07T21:18:02.637Z,2.50
2022-08-07T21:20:30.321Z,2.53
2022-08-07T21:23:09.799Z,2.30
2022-08-07T21:25:56.464Z,2.63
2022-08-07T21:28:49.299Z,2.67
2022-08-07T21:34:20.234Z,2.10
2022-08-07T21:37:18.243Z,2.83
2022-08-07T21:40:16.203Z,2.60
2022-08-07T21:43:10.590Z,2.53
2022-08-07T21:46:08.512Z,2.50
2022-08-07T21:48:38.462Z,2.50
2022-08-07T21:51:27.895Z,2.70
2022-08-07T21:54:09.664Z,2.10
2022-08-07T21:56:47.903Z,2.20
2022-08-07T22:00:02.804Z,2.50
2022-08-07T22:02:31.773Z,2.60
2022-08-07T22:05:01.457Z,2.53
2022-08-07T22:07:57.809Z,2.43
2022-08-07T22:10:26.182Z,2.50
2022-08-07T22:13:51.318Z,2.80
2022-08-07T22:19:53.475Z,2.70
2022-08-07T22:22:44.787Z,2.50
2022-08-07T22:25:36.452Z,2.50
2022-08-07T22:28:31.323Z,2.77
2022-08-07T22:31:05.165Z,2.80
2022-08-07T22:33:56.761Z,3.10
2022-08-07T22:36:46.405Z,2.50
2022-08-07T22:39:19.270Z,2.70
2022-08-07T22:42:10.578Z,2.73
2022-08-07T22:44:59.086Z,2.80
2022-08-07T22:50:51.553Z,2.40
2022-08-07T22:54:07.736Z,3.10
2022-08-07T22:56:45.582Z,2.57
2022-08-07T22:59:32.566Z,2.73
2022-08-07T23:06:15.409Z,3.30
2022-08-07T23:08:24.400Z,2.90
2022-08-07T23:11:18.938Z,3.37
2022-08-07T23:14:15.095Z,2.83
2022-08-07T23:17:20.097Z,3.10
2022-08-07T23:20:12.802Z,2.70
2022-08-07T23:23:13.124Z,3.10
2022-08-07T23:26:25.105Z,3.03
2022-08-07T23:29:42.655Z,3.47
2022-08-07T23:34:18.929Z,2.97
2022-08-07T23:34:52.985Z,2.87
2022-08-07T23:37:36.106Z,2.97
2022-08-07T23:40:52.968Z,2.83
2022-08-07T23:43:40.045Z,2.90
2022-08-07T23:46:23.610Z,4.00
2022-08-07T23:48:58.825Z,2.90
2022-08-07T23:53:01.513Z,3.17
2022-08-07T23:54:36.197Z,3.20
2022-08-07T23:57:13.805Z,2.80
